Latest Weather Observations for Redcliffe

IDQ60901

Issued at 6:41 am EST Saturday 27 May 2017 (issued every 10 minutes, with the page automatically refreshed every 10 minutes)

About weather observations | Map of Brisbane area stations | Latest observations for Brisbane area | Other Formats
Station Details ID: 040958 Name: REDCLIFFE Lat: -27.22 Lon: 153.09 Height: 12.6 m
Data from the previous 72 hours. | See also: Recent months at Redcliffe
Date/Time
EST
Temp
°C
App
Temp
°C
Dew
Point
°C
Rel
Hum
%
Delta-T
°C
Wind Press
QNH
hPa
Press
MSL
hPa
Rain since
9am
mm
Dir  Spd
km/h
Gust
km/h
Spd
kts
Gust
kts
27/06:30am 14.3 12.6 12.5 89 1.0 SW 13 17 7 9 1021.1 1021.1 0.0
27/06:00am 14.3 12.6 12.5 89 1.0 SW 13 15 7 8 1020.9 1020.9 0.0
27/05:30am 14.4 12.7 12.4 88 1.1 SSW 13 17 7 9 1020.5 1020.5 0.0
27/05:00am 14.6 12.9 12.6 88 1.1 SSW 13 17 7 9 1020.4 1020.4 0.0
27/04:30am 14.8 13.3 13.0 89 1.0 SSW 13 17 7 9 1020.2 1020.2 0.0
27/04:00am 14.8 13.3 13.0 89 1.0 SW 13 17 7 9 1020.1 1020.1 0.0
27/03:30am 14.8 13.3 13.0 89 1.0 SSW 13 17 7 9 1020.1 1020.1 0.0
27/03:00am 15.0 13.5 13.2 89 1.0 SW 13 17 7 9 1020.1 1020.1 0.0
27/02:30am 15.0 13.1 13.0 88 1.1 SW 15 17 8 9 1020.2 1020.2 0.0
27/02:00am 15.0 13.5 13.0 88 1.1 WSW 13 15 7 8 1020.4 1020.4 0.0
27/01:30am 15.3 13.5 13.3 88 1.1 WSW 15 19 8 10 1020.4 1020.4 0.0
27/01:00am 15.3 13.9 13.3 88 1.1 WSW 13 17 7 9 1020.7 1020.7 0.0
27/12:30am 15.5 14.1 13.5 88 1.1 WSW 13 15 7 8 1020.9 1020.9 0.0
27/12:00am 15.6 14.3 13.6 88 1.1 WSW 13 15 7 8 1020.8 1020.8 0.0
 
Date/Time
EST
Temp
°C
App
Temp
°C
Dew
Point
°C
Rel
Hum
%
Delta-T
°C
Wind Press
QNH
hPa
Press
MSL
hPa
Rain since
9am
mm
Dir  Spd
km/h
Gust
km/h
Spd
kts
Gust
kts
26/11:30pm 15.9 14.7 13.9 88 1.1 WSW 13 15 7 8 1020.9 1020.9 0.0
26/11:00pm 16.0 14.8 14.0 88 1.1 WSW 13 15 7 8 1020.9 1020.9 0.0
26/10:30pm 16.3 15.5 14.0 86 1.3 WSW 11 13 6 7 1020.8 1020.8 0.0
26/10:00pm 16.5 15.6 13.8 84 1.5 WSW 11 13 6 7 1020.8 1020.8 0.0
26/09:30pm 16.6 16.0 13.5 82 1.7 WSW 9 11 5 6 1020.8 1020.8 0.0
26/09:00pm 17.1 16.5 13.6 80 2.0 W 9 11 5 6 1020.8 1020.8 0.0
26/08:30pm 17.4 17.4 14.3 82 1.8 ENE 7 9 4 5 1020.4 1020.4 0.0
26/08:00pm 18.1 17.7 14.2 78 2.2 ENE 9 11 5 6 1020.2 1020.2 0.0
26/07:30pm 18.9 18.2 14.2 74 2.7 E 11 13 6 7 1019.9 1019.9 0.0
26/07:00pm 19.9 18.5 14.5 71 3.1 E 15 15 8 8 1019.6 1019.6 0.0
26/06:30pm 20.2 18.7 14.1 68 3.5 E 15 17 8 9 1019.3 1019.3 0.0
26/06:00pm 20.3 18.9 14.4 69 3.4 E 15 17 8 9 1018.9 1018.9 0.0
26/05:30pm 20.4 18.5 14.3 68 3.5 E 17 19 9 10 1018.5 1018.5 0.0
26/05:00pm 20.8 18.6 13.3 62 4.3 E 17 19 9 10 1018.4 1018.4 0.0
26/04:30pm 21.4 19.7 12.3 56 5.1 ENE 13 15 7 8 1018.3 1018.3 0.0
26/04:00pm 21.6 19.9 13.5 60 4.7 ENE 15 17 8 9 1018.2 1018.1 0.0
26/03:30pm 21.8 19.3 12.4 55 5.3 E 17 17 9 9 1018.0 1017.9 0.0
26/03:00pm 21.8 20.1 13.7 60 4.7 E 15 17 8 9 1018.1 1018.0 0.0
26/02:30pm 22.1 20.4 13.5 58 5.0 E 15 17 8 9 1018.3 1018.3 0.0
26/02:00pm 22.0 20.0 13.9 60 4.7 E 17 19 9 10 1018.5 1018.5 0.0
26/01:30pm 22.2 20.6 13.8 59 4.9 E 15 15 8 8 1018.7 1018.7 0.0
26/01:00pm 22.2 20.8 13.5 57 5.0 E 13 15 7 8 1019.0 1019.0 0.0
26/12:30pm 22.4 21.1 13.7 58 5.0 ESE 13 13 7 7 1019.4 1019.4 0.0
26/12:00pm 22.4 21.3 13.2 56 5.3 ESE 11 11 6 6 1020.0 1020.0 0.0
26/11:30am 22.5 21.6 13.6 57 5.2 SE 11 13 6 7 1020.6 1020.6 0.0
26/11:00am 23.0 21.9 13.2 54 5.6 SE 11 13 6 7 1021.1 1021.1 0.0
26/10:30am 22.6 21.5 13.1 55 5.5 SSE 11 13 6 7 1021.3 1021.3 0.0
26/10:00am 21.5 21.1 14.2 63 4.2 SW 9 13 5 7 1021.5 1021.5 0.0
26/09:30am 21.4 20.8 14.6 65 4.0 SW 11 15 6 8 1021.6 1021.6 0.0
26/09:00am 20.4 19.7 14.3 68 3.5 SSW 11 15 6 8 1021.4 1021.4 0.0
26/08:30am 19.3 18.1 14.1 72 3.0 SW 13 15 7 8 1021.0 1021.0 0.0
26/08:00am 17.5 16.2 13.8 79 2.1 SW 13 17 7 9 1020.8 1020.8 0.0
26/07:30am 16.0 14.1 12.9 82 1.7 SW 15 17 8 9 1020.7 1020.7 0.0
26/07:00am 15.0 12.9 12.5 85 1.4 SW 15 19 8 10 1020.2 1020.2 0.0
26/06:30am 14.5 12.8 12.4 87 1.1 SW 13 17 7 9 1019.7 1019.7 0.0
26/06:00am 14.5 12.4 12.4 87 1.1 SW 15 17 8 9 1019.5 1019.5 0.0
26/05:30am 14.8 13.1 12.5 86 1.3 SW 13 15 7 8 1019.2 1019.2 0.0
26/05:00am 15.0 13.3 12.5 85 1.4 SSW 13 17 7 9 1018.9 1018.9 0.0
26/04:30am 15.0 13.4 12.7 86 1.3 SSW 13 17 7 9 1018.7 1018.7 0.0
26/04:00am 15.0 13.4 12.9 87 1.2 SW 13 17 7 9 1018.8 1018.8 0.0
26/03:30am 15.2 14.1 13.1 87 1.2 SW 11 15 6 8 1019.0 1019.0 0.0
26/03:00am 15.3 13.8 13.2 87 1.2 SW 13 17 7 9 1019.1 1019.1 0.0
26/02:30am 15.5 14.1 13.3 87 1.2 SW 13 17 7 9 1019.2 1019.2 0.0
26/02:00am 15.6 14.2 13.3 86 1.3 SSW 13 17 7 9 1019.4 1019.4 0.0
26/01:30am 15.8 14.8 13.5 86 1.3 SW 11 15 6 8 1019.6 1019.6 0.0
26/01:00am 15.7 14.3 13.4 86 1.3 SW 13 15 7 8 1019.8 1019.8 0.0
26/12:30am 15.8 14.8 13.5 86 1.3 SSW 11 15 6 8 1019.9 1019.9 0.0
26/12:00am 16.0 15.1 13.7 86 1.3 SW 11 13 6 7 1019.9 1019.9 0.0
 
Date/Time
EST
Temp
°C
App
Temp
°C
Dew
Point
°C
Rel
Hum
%
Delta-T
°C
Wind Press
QNH
hPa
Press
MSL
hPa
Rain since
9am
mm
Dir  Spd
km/h
Gust
km/h
Spd
kts
Gust
kts
25/11:30pm 16.1 15.2 13.6 85 1.4 SW 11 15 6 8 1019.9 1019.9 0.0
25/11:00pm 16.6 15.8 13.9 84 1.5 SW 11 15 6 8 1020.0 1020.0 0.0
25/10:30pm 17.1 16.0 14.2 83 1.7 SW 13 17 7 9 1020.0 1020.0 0.0
25/10:00pm 18.3 16.4 14.2 77 2.3 SE 17 19 9 10 1020.0 1020.0 0.0
25/09:30pm 19.2 17.6 14.9 76 2.5 SE 17 19 9 10 1019.9 1019.9 0.0
25/09:00pm 19.6 18.0 15.0 75 2.7 SE 17 22 9 12 1020.0 1020.0 0.0
25/08:30pm 19.7 17.5 14.9 74 2.8 SE 20 24 11 13 1019.9 1019.9 0.0
25/08:00pm 20.1 18.0 15.1 73 2.9 SE 20 24 11 13 1019.9 1019.9 0.0
25/07:30pm 20.1 18.1 14.9 72 3.0 SE 19 20 10 11 1019.7 1019.7 0.0
25/07:00pm 20.5 18.4 14.6 69 3.4 SE 19 22 10 12 1019.4 1019.4 0.0
25/06:30pm 20.6 18.2 14.5 68 3.6 SE 20 24 11 13 1019.0 1019.0 0.0
25/06:00pm 20.6 18.2 14.5 68 3.6 ESE 20 24 11 13 1018.8 1018.8 0.0
25/05:30pm 20.6 17.5 14.5 68 3.6 SE 24 28 13 15 1018.5 1018.5 0.0
25/05:00pm 20.8 17.7 14.5 67 3.7 SE 24 28 13 15 1018.2 1018.1 0.0
25/04:30pm 21.2 17.7 14.4 65 4.0 SE 26 30 14 16 1018.0 1017.9 0.0
25/04:00pm 21.5 17.9 14.2 63 4.2 SE 26 30 14 16 1017.7 1017.6 0.0
25/03:30pm 21.7 17.6 13.9 61 4.5 SE 28 32 15 17 1017.5 1017.4 0.0
25/03:00pm 22.0 17.9 13.9 60 4.7 SE 28 32 15 17 1017.4 1017.3 0.0
25/02:30pm 22.2 18.0 13.5 57 5.0 SE 28 32 15 17 1017.4 1017.3 0.0
25/02:00pm 22.2 17.9 13.3 57 5.1 SE 28 32 15 17 1017.5 1017.4 0.0
25/01:30pm 22.5 18.4 13.8 58 5.1 SSE 28 30 15 16 1017.4 1017.3 0.0
25/01:00pm 22.7 18.4 13.2 55 5.5 SSE 28 32 15 17 1017.6 1017.5 0.0
25/12:30pm 22.8 18.3 13.8 57 5.2 SSE 30 32 16 17 1017.9 1017.8 0.0
25/12:00pm 22.6 17.9 13.1 55 5.5 SSE 30 33 16 18 1018.2 1018.1 0.0
25/11:30am 22.4 18.4 12.9 55 5.4 SSE 26 30 14 16 1018.5 1018.5 0.0
25/11:00am 22.5 18.6 13.3 56 5.3 S 26 30 14 16 1018.8 1018.8 0.0
25/10:30am 22.3 18.9 13.6 58 5.0 S 24 30 13 16 1019.0 1019.0 0.0
25/10:00am 21.7 18.9 13.1 58 4.9 S 20 28 11 15 1019.1 1019.1 0.0
25/09:30am 21.3 19.1 13.2 60 4.6 SSW 17 26 9 14 1019.0 1019.0 0.0
25/09:00am 20.6 18.6 12.8 61 4.4 SSW 15 22 8 12 1019.1 1019.1 0.0
25/08:30am 19.0 16.9 12.5 66 3.6 SW 15 17 8 9 1018.9 1018.9 0.0
25/08:00am 17.7 15.6 12.4 71 2.9 SW 15 20 8 11 1018.8 1018.8 0.0
25/07:30am 16.5 13.9 12.1 75 2.4 SW 17 22 9 12 1018.4 1018.4 0.0
25/07:00am 15.3 13.8 13.0 86 1.3 SW 13 15 7 8 1018.1 1018.0 0.0
25/06:30am 15.0 13.8 12.9 87 1.2 S 11 15 6 8 1017.9 1017.8 0.0
25/06:00am 15.0 13.8 12.7 86 1.3 SW 11 15 6 8 1017.3 1017.2 0.0
25/05:30am 16.0 15.0 13.3 84 1.5 SW 11 13 6 7 1016.9 1016.8 0.0
25/05:00am 16.0 15.1 12.6 80 1.9 SSW 9 11 5 6 1016.6 1016.5 0.0
25/04:30am 16.7 16.4 12.8 78 2.2 S 6 9 3 5 1016.4 1016.3 0.0
25/04:00am 16.4 15.7 13.1 81 1.8 W 9 11 5 6 1016.1 1016.0 0.0
25/03:30am 16.5 15.9 13.4 82 1.7 WNW 9 13 5 7 1016.0 1015.9 0.0
25/03:00am 17.0 16.1 13.7 81 1.9 W 11 17 6 9 1015.7 1015.6 0.0
25/02:30am 16.9 15.8 14.4 85 1.4 WSW 13 17 7 9 1015.6 1015.5 0.0
25/02:00am 17.2 16.7 15.0 87 1.3 WSW 11 15 6 8 1015.7 1015.6 0.0
25/01:30am 17.8 18.1 16.0 89 1.1 WSW 9 13 5 7 1015.9 1015.8 0.0
25/01:00am 17.4 17.5 15.6 89 1.1 SW 9 13 5 7 1016.1 1016.0 0.0
25/12:30am 17.9 18.3 16.2 90 1.0 WSW 9 11 5 6 1016.0 1015.9 0.0
25/12:00am 18.5 19.4 16.7 89 1.1 SW 7 9 4 5 1016.1 1016.0 0.0
 
Date/Time
EST
Temp
°C
App
Temp
°C
Dew
Point
°C
Rel
Hum
%
Delta-T
°C
Wind Press
QNH
hPa
Press
MSL
hPa
Rain since
9am
mm
Dir  Spd
km/h
Gust
km/h
Spd
kts
Gust
kts
24/11:30pm 19.4 20.2 17.4 88 1.2 N 9 11 5 6 1016.1 1016.0 0.0
24/11:00pm 19.7 20.7 17.7 88 1.2 NNW 9 11 5 6 1016.3 1016.2 0.0
24/10:30pm 20.0 21.1 18.1 89 1.2 N 9 11 5 6 1016.4 1016.3 0.0
24/10:00pm 19.9 21.3 17.9 88 1.2 NNW 7 9 4 5 1016.4 1016.3 0.0
24/09:30pm 20.2 21.0 18.1 88 1.3 NNW 11 13 6 7 1016.3 1016.2 0.0
24/09:00pm 20.3 21.1 18.1 87 1.4 N 11 15 6 8 1016.3 1016.2 0.0
24/08:30pm 20.5 21.3 18.1 86 1.5 N 11 11 6 6 1016.2 1016.1 0.0
24/08:00pm 20.6 21.3 18.0 85 1.6 N 11 17 6 9 1016.3 1016.2 0.0
24/07:30pm 20.9 21.4 18.3 85 1.6 N 13 17 7 9 1016.3 1016.2 0.0
24/07:00pm 21.0 21.4 18.2 84 1.7 N 13 17 7 9 1016.2 1016.1 0.0
24/06:30pm 21.2 21.2 18.2 83 1.9 N 15 17 8 9 1016.1 1016.0 0.0
24/06:00pm 21.4 21.7 18.0 81 2.1 N 13 17 7 9 1015.9 1015.8 0.0
24/05:30pm 21.7 21.5 17.7 78 2.5 N 15 19 8 10 1015.8 1015.7 0.0
24/05:00pm 21.9 21.5 18.1 79 2.4 N 17 20 9 11 1015.7 1015.6 0.0
24/04:30pm 22.3 21.8 17.7 75 2.9 N 17 20 9 11 1015.4 1015.3 0.0
24/04:00pm 22.6 21.9 17.3 72 3.3 NNE 17 20 9 11 1015.2 1015.1 0.0
24/03:30pm 23.1 22.5 17.6 71 3.4 NNE 17 19 9 10 1015.3 1015.2 0.0
24/03:00pm 23.3 22.6 17.3 69 3.7 NNE 17 19 9 10 1015.4 1015.3 0.0
24/02:30pm 23.2 22.6 16.7 67 4.0 NE 15 17 8 9 1015.7 1015.6 0.0
24/02:00pm 23.3 23.5 17.7 71 3.5 NE 13 15 7 8 1015.8 1015.7 0.0
24/01:30pm 24.2 24.3 17.4 65 4.2 ENE 13 13 7 7 1016.0 1015.9 0.0
24/01:00pm 23.3 23.5 16.8 67 4.0 ENE 11 13 6 7 1016.5 1016.4 0.0
24/12:30pm 22.9 23.5 16.9 69 3.7 E 9 11 5 6 1017.1 1017.0 0.0
24/12:00pm 22.6 23.5 17.5 73 3.2 SE 9 9 5 5 1017.6 1017.5 0.0
24/11:30am 21.9 22.4 16.6 72 3.2 E 9 11 5 6 1018.1 1018.0 0.0
24/11:00am 22.1 23.0 17.5 75 2.8 ESE 9 11 5 6 1018.7 1018.7 0.0
24/10:30am 21.5 21.9 17.3 77 2.6 SSE 11 13 6 7 1019.3 1019.3 0.0
24/10:00am 21.0 21.1 16.6 76 2.7 SSE 11 13 6 7 1019.7 1019.7 0.0
24/09:30am 21.0 21.6 16.8 77 2.6 SE 9 13 5 7 1020.0 1020.0 0.0
24/09:00am 19.7 21.8 16.3 81 2.0 CALM 0 0 0 0 1019.8 1019.8 0.2
24/08:30am 18.4 19.1 15.6 84 1.6 WNW 6 7 3 4 1019.8 1019.8 0.2
24/08:00am 17.5 17.3 15.7 89 1.1 WSW 11 13 6 7 1019.7 1019.7 0.2
24/07:30am 16.7 16.8 15.4 92 0.8 WSW 9 11 5 6 1019.7 1019.7 0.2
24/07:00am 16.1 16.0 15.0 93 0.6 WSW 9 11 5 6 1019.4 1019.4 0.2

Latest Capital City Observations: Canberra | Sydney | Melbourne | Brisbane | Adelaide | Perth | Hobart | Darwin

Other Formats:

Comma delimited format used in spreadsheet applications
http://www.bom.gov.au/fwo/IDQ60901/IDQ60901.95591.axf

JavaScript Object Notation format (JSON) in row-major order
http://www.bom.gov.au/fwo/IDQ60901/IDQ60901.95591.json